sensor_id;sensor_type;location;lat;lon;timestamp;P1;durP1;ratioP1;P2;durP2;ratioP2
78818;SDS011;68166;55.090;37.460;2023-04-03T00:02:40;1.55;;;1.05;;
78818;SDS011;68166;55.090;37.460;2023-04-03T00:07:42;2.60;;;0.80;;
78818;SDS011;68166;55.090;37.460;2023-04-03T00:12:42;4.47;;;1.67;;
78818;SDS011;68166;55.090;37.460;2023-04-03T00:17:43;2.92;;;1.00;;
78818;SDS011;68166;55.090;37.460;2023-04-03T00:22:45;3.92;;;0.65;;
78818;SDS011;68166;55.090;37.460;2023-04-03T00:27:46;1.73;;;0.70;;
78818;SDS011;68166;55.090;37.460;2023-04-03T00:32:50;1.65;;;1.10;;
78818;SDS011;68166;55.090;37.460;2023-04-03T00:37:52;1.70;;;0.60;;
78818;SDS011;68166;55.090;37.460;2023-04-03T00:42:57;1.02;;;0.70;;
78818;SDS011;68166;55.090;37.460;2023-04-03T00:47:59;2.05;;;0.98;;
78818;SDS011;68166;55.090;37.460;2023-04-03T00:53:02;1.45;;;0.90;;
78818;SDS011;68166;55.090;37.460;2023-04-03T00:58:05;2.30;;;1.33;;
78818;SDS011;68166;55.090;37.460;2023-04-03T01:03:07;2.83;;;0.60;;
78818;SDS011;68166;55.090;37.460;2023-04-03T01:08:08;3.05;;;1.15;;
78818;SDS011;68166;55.090;37.460;2023-04-03T01:13:26;2.35;;;1.20;;
78818;SDS011;68166;55.090;37.460;2023-04-03T01:18:29;1.50;;;0.90;;
78818;SDS011;68166;55.090;37.460;2023-04-03T01:29:20;2.30;;;1.45;;
78818;SDS011;68166;55.090;37.460;2023-04-03T01:34:21;1.98;;;1.05;;
78818;SDS011;68166;55.090;37.460;2023-04-03T01:39:23;1.17;;;0.98;;
78818;SDS011;68166;55.090;37.460;2023-04-03T01:44:24;0.80;;;0.65;;
78818;SDS011;68166;55.090;37.460;2023-04-03T01:49:25;1.08;;;0.82;;
78818;SDS011;68166;55.090;37.460;2023-04-03T01:54:26;1.42;;;0.90;;
78818;SDS011;68166;55.090;37.460;2023-04-03T01:59:27;1.92;;;1.10;;
78818;SDS011;68166;55.090;37.460;2023-04-03T02:04:28;1.65;;;1.35;;
78818;SDS011;68166;55.090;37.460;2023-04-03T02:09:29;1.98;;;1.35;;
78818;SDS011;68166;55.090;37.460;2023-04-03T02:14:30;1.23;;;0.80;;
78818;SDS011;68166;55.090;37.460;2023-04-03T02:19:31;2.47;;;0.75;;
78818;SDS011;68166;55.090;37.460;2023-04-03T02:24:32;1.77;;;1.02;;
78818;SDS011;68166;55.090;37.460;2023-04-03T02:29:33;2.50;;;0.68;;
78818;SDS011;68166;55.090;37.460;2023-04-03T02:34:34;1.50;;;1.08;;
78818;SDS011;68166;55.090;37.460;2023-04-03T02:39:35;2.45;;;1.38;;
78818;SDS011;68166;55.090;37.460;2023-04-03T02:44:36;4.93;;;2.05;;
78818;SDS011;68166;55.090;37.460;2023-04-03T02:49:38;2.50;;;1.48;;
78818;SDS011;68166;55.090;37.460;2023-04-03T02:54:39;3.35;;;1.55;;
78818;SDS011;68166;55.090;37.460;2023-04-03T02:59:41;1.33;;;0.90;;
78818;SDS011;68166;55.090;37.460;2023-04-03T03:04:42;1.80;;;0.95;;
78818;SDS011;68166;55.090;37.460;2023-04-03T03:09:46;2.17;;;0.70;;
78818;SDS011;68166;55.090;37.460;2023-04-03T03:14:47;1.02;;;0.32;;
78818;SDS011;68166;55.090;37.460;2023-04-03T03:19:48;1.67;;;0.80;;
78818;SDS011;68166;55.090;37.460;2023-04-03T03:24:49;4.15;;;1.17;;
78818;SDS011;68166;55.090;37.460;2023-04-03T03:29:50;3.30;;;1.55;;
78818;SDS011;68166;55.090;37.460;2023-04-03T03:34:51;2.60;;;1.35;;
78818;SDS011;68166;55.090;37.460;2023-04-03T03:39:52;2.92;;;1.42;;
78818;SDS011;68166;55.090;37.460;2023-04-03T03:44:53;1.75;;;1.13;;
78818;SDS011;68166;55.090;37.460;2023-04-03T03:49:54;3.75;;;1.80;;
78818;SDS011;68166;55.090;37.460;2023-04-03T03:54:55;5.05;;;2.63;;
78818;SDS011;68166;55.090;37.460;2023-04-03T03:59:56;8.93;;;2.45;;
78818;SDS011;68166;55.090;37.460;2023-04-03T04:04:57;3.65;;;1.63;;
78818;SDS011;68166;55.090;37.460;2023-04-03T04:09:58;4.28;;;2.28;;
78818;SDS011;68166;55.090;37.460;2023-04-03T04:14:59;3.03;;;1.85;;
78818;SDS011;68166;55.090;37.460;2023-04-03T04:20:01;2.60;;;1.50;;
78818;SDS011;68166;55.090;37.460;2023-04-03T04:25:05;4.57;;;2.40;;
78818;SDS011;68166;55.090;37.460;2023-04-03T04:30:06;3.10;;;1.67;;
78818;SDS011;68166;55.090;37.460;2023-04-03T04:35:09;2.75;;;1.30;;
78818;SDS011;68166;55.090;37.460;2023-04-03T04:40:11;3.50;;;1.40;;
78818;SDS011;68166;55.090;37.460;2023-04-03T04:45:12;8.10;;;1.95;;
78818;SDS011;68166;55.090;37.460;2023-04-03T04:50:14;4.03;;;2.22;;
78818;SDS011;68166;55.090;37.460;2023-04-03T04:55:16;5.13;;;1.83;;
78818;SDS011;68166;55.090;37.460;2023-04-03T05:00:17;4.90;;;3.47;;
78818;SDS011;68166;55.090;37.460;2023-04-03T05:05:18;10.85;;;3.75;;
78818;SDS011;68166;55.090;37.460;2023-04-03T05:10:19;5.95;;;2.13;;
78818;SDS011;68166;55.090;37.460;2023-04-03T05:15:20;6.80;;;2.33;;
78818;SDS011;68166;55.090;37.460;2023-04-03T05:20:21;3.75;;;1.92;;
78818;SDS011;68166;55.090;37.460;2023-04-03T05:25:25;4.45;;;1.90;;
78818;SDS011;68166;55.090;37.460;2023-04-03T05:30:27;6.38;;;3.05;;
78818;SDS011;68166;55.090;37.460;2023-04-03T05:35:28;6.80;;;3.50;;
78818;SDS011;68166;55.090;37.460;2023-04-03T05:40:29;5.22;;;2.80;;
78818;SDS011;68166;55.090;37.460;2023-04-03T05:45:30;4.57;;;1.85;;
78818;SDS011;68166;55.090;37.460;2023-04-03T05:50:31;4.60;;;2.80;;
78818;SDS011;68166;55.090;37.460;2023-04-03T05:55:32;8.15;;;2.70;;
78818;SDS011;68166;55.090;37.460;2023-04-03T06:00:33;9.52;;;4.32;;
78818;SDS011;68166;55.090;37.460;2023-04-03T06:05:34;6.03;;;3.05;;
78818;SDS011;68166;55.090;37.460;2023-04-03T06:10:35;6.05;;;2.60;;
78818;SDS011;68166;55.090;37.460;2023-04-03T06:20:38;4.95;;;3.30;;
78818;SDS011;68166;55.090;37.460;2023-04-03T06:25:41;6.97;;;3.70;;
78818;SDS011;68166;55.090;37.460;2023-04-03T06:30:42;13.60;;;4.15;;
78818;SDS011;68166;55.090;37.460;2023-04-03T06:35:43;9.45;;;4.30;;
78818;SDS011;68166;55.090;37.460;2023-04-03T06:40:44;10.18;;;4.43;;
78818;SDS011;68166;55.090;37.460;2023-04-03T06:45:45;7.88;;;3.13;;
78818;SDS011;68166;55.090;37.460;2023-04-03T06:50:47;7.60;;;3.65;;
78818;SDS011;68166;55.090;37.460;2023-04-03T06:55:48;9.52;;;4.22;;
78818;SDS011;68166;55.090;37.460;2023-04-03T07:05:50;5.00;;;2.88;;
78818;SDS011;68166;55.090;37.460;2023-04-03T07:15:52;9.93;;;3.55;;
78818;SDS011;68166;55.090;37.460;2023-04-03T07:20:53;7.70;;;4.30;;
78818;SDS011;68166;55.090;37.460;2023-04-03T07:31:14;6.68;;;3.88;;
78818;SDS011;68166;55.090;37.460;2023-04-03T07:36:18;6.60;;;3.55;;
78818;SDS011;68166;55.090;37.460;2023-04-03T07:41:20;6.32;;;3.70;;
78818;SDS011;68166;55.090;37.460;2023-04-03T07:46:23;7.75;;;3.70;;
78818;SDS011;68166;55.090;37.460;2023-04-03T07:51:24;8.95;;;4.10;;
78818;SDS011;68166;55.090;37.460;2023-04-03T07:56:26;8.15;;;3.88;;
78818;SDS011;68166;55.090;37.460;2023-04-03T08:01:27;6.68;;;3.38;;
78818;SDS011;68166;55.090;37.460;2023-04-03T08:06:30;6.40;;;3.08;;
78818;SDS011;68166;55.090;37.460;2023-04-03T08:11:32;7.00;;;3.97;;
78818;SDS011;68166;55.090;37.460;2023-04-03T08:16:33;7.22;;;3.15;;
78818;SDS011;68166;55.090;37.460;2023-04-03T08:21:35;7.40;;;3.10;;
78818;SDS011;68166;55.090;37.460;2023-04-03T08:26:36;6.13;;;3.25;;
78818;SDS011;68166;55.090;37.460;2023-04-03T08:31:37;6.97;;;2.80;;
78818;SDS011;68166;55.090;37.460;2023-04-03T08:36:39;7.22;;;3.83;;
78818;SDS011;68166;55.090;37.460;2023-04-03T08:41:41;4.85;;;2.92;;
78818;SDS011;68166;55.090;37.460;2023-04-03T08:52:11;7.38;;;3.60;;
78818;SDS011;68166;55.090;37.460;2023-04-03T08:57:15;10.45;;;3.10;;
78818;SDS011;68166;55.090;37.460;2023-04-03T09:02:25;5.28;;;2.60;;
78818;SDS011;68166;55.090;37.460;2023-04-03T09:07:42;4.50;;;2.60;;
78818;SDS011;68166;55.090;37.460;2023-04-03T09:18:26;6.20;;;3.63;;
78818;SDS011;68166;55.090;37.460;2023-04-03T09:28:44;5.47;;;2.55;;
78818;SDS011;68166;55.090;37.460;2023-04-03T09:33:46;4.70;;;2.78;;
78818;SDS011;68166;55.090;37.460;2023-04-03T09:44:04;4.00;;;2.22;;
78818;SDS011;68166;55.090;37.460;2023-04-03T09:49:22;7.85;;;2.95;;
78818;SDS011;68166;55.090;37.460;2023-04-03T09:54:24;7.60;;;2.80;;
78818;SDS011;68166;55.090;37.460;2023-04-03T09:59:33;4.10;;;2.28;;
78818;SDS011;68166;55.090;37.460;2023-04-03T10:04:38;5.13;;;2.30;;
78818;SDS011;68166;55.090;37.460;2023-04-03T10:09:40;5.07;;;2.65;;
78818;SDS011;68166;55.090;37.460;2023-04-03T10:20:16;7.22;;;3.20;;
78818;SDS011;68166;55.090;37.460;2023-04-03T10:46:34;6.47;;;3.58;;
78818;SDS011;68166;55.090;37.460;2023-04-03T10:52:17;7.95;;;3.30;;
78818;SDS011;68166;55.090;37.460;2023-04-03T10:57:21;5.28;;;3.22;;
78818;SDS011;68166;55.090;37.460;2023-04-03T11:02:28;5.85;;;3.58;;
78818;SDS011;68166;55.090;37.460;2023-04-03T11:07:49;6.68;;;2.60;;
78818;SDS011;68166;55.090;37.460;2023-04-03T11:12:56;4.93;;;2.70;;
78818;SDS011;68166;55.090;37.460;2023-04-03T11:18:04;5.60;;;3.20;;
78818;SDS011;68166;55.090;37.460;2023-04-03T11:23:36;5.57;;;3.20;;
78818;SDS011;68166;55.090;37.460;2023-04-03T11:28:38;5.72;;;3.15;;
78818;SDS011;68166;55.090;37.460;2023-04-03T11:44:28;6.40;;;2.75;;
78818;SDS011;68166;55.090;37.460;2023-04-03T11:54:56;13.18;;;2.60;;
78818;SDS011;68166;55.090;37.460;2023-04-03T11:59:57;7.60;;;2.47;;
78818;SDS011;68166;55.090;37.460;2023-04-03T12:10:28;6.28;;;3.10;;
78818;SDS011;68166;55.090;37.460;2023-04-03T12:15:49;9.32;;;2.97;;
78818;SDS011;68166;55.090;37.460;2023-04-03T12:25:53;4.32;;;2.00;;
78818;SDS011;68166;55.090;37.460;2023-04-03T12:31:19;4.47;;;2.55;;
78818;SDS011;68166;55.090;37.460;2023-04-03T12:36:27;4.40;;;2.25;;
78818;SDS011;68166;55.090;37.460;2023-04-03T12:41:56;7.95;;;3.38;;
78818;SDS011;68166;55.090;37.460;2023-04-03T12:47:22;6.65;;;2.83;;
78818;SDS011;68166;55.090;37.460;2023-04-03T12:52:42;4.80;;;2.65;;
78818;SDS011;68166;55.090;37.460;2023-04-03T12:57:48;3.53;;;1.95;;
78818;SDS011;68166;55.090;37.460;2023-04-03T13:02:49;8.70;;;2.65;;
78818;SDS011;68166;55.090;37.460;2023-04-03T13:07:58;7.57;;;2.10;;
78818;SDS011;68166;55.090;37.460;2023-04-03T13:13:09;5.55;;;2.45;;
78818;SDS011;68166;55.090;37.460;2023-04-03T13:23:24;5.03;;;2.67;;
78818;SDS011;68166;55.090;37.460;2023-04-03T13:28:25;4.95;;;2.45;;
78818;SDS011;68166;55.090;37.460;2023-04-03T13:33:27;6.60;;;2.13;;
78818;SDS011;68166;55.090;37.460;2023-04-03T13:38:33;7.10;;;2.67;;
78818;SDS011;68166;55.090;37.460;2023-04-03T13:43:36;4.53;;;2.38;;
78818;SDS011;68166;55.090;37.460;2023-04-03T13:48:43;4.75;;;2.85;;
78818;SDS011;68166;55.090;37.460;2023-04-03T13:53:58;6.03;;;3.15;;
78818;SDS011;68166;55.090;37.460;2023-04-03T13:59:03;6.70;;;3.63;;
78818;SDS011;68166;55.090;37.460;2023-04-03T14:04:18;16.05;;;7.78;;
78818;SDS011;68166;55.090;37.460;2023-04-03T14:09:27;18.10;;;8.30;;
78818;SDS011;68166;55.090;37.460;2023-04-03T14:14:33;5.53;;;3.53;;
78818;SDS011;68166;55.090;37.460;2023-04-03T14:19:35;8.70;;;5.10;;
78818;SDS011;68166;55.090;37.460;2023-04-03T14:24:37;15.30;;;9.18;;
78818;SDS011;68166;55.090;37.460;2023-04-03T14:29:39;6.72;;;3.13;;
78818;SDS011;68166;55.090;37.460;2023-04-03T14:34:40;6.05;;;3.05;;
78818;SDS011;68166;55.090;37.460;2023-04-03T14:39:42;8.48;;;3.00;;
78818;SDS011;68166;55.090;37.460;2023-04-03T14:44:43;4.65;;;2.72;;
78818;SDS011;68166;55.090;37.460;2023-04-03T14:49:44;8.02;;;3.65;;
78818;SDS011;68166;55.090;37.460;2023-04-03T14:59:47;5.07;;;2.72;;
78818;SDS011;68166;55.090;37.460;2023-04-03T15:09:49;7.43;;;3.70;;
78818;SDS011;68166;55.090;37.460;2023-04-03T15:14:50;5.50;;;3.20;;
78818;SDS011;68166;55.090;37.460;2023-04-03T15:24:52;6.43;;;3.55;;
78818;SDS011;68166;55.090;37.460;2023-04-03T15:34:54;8.93;;;3.67;;
78818;SDS011;68166;55.090;37.460;2023-04-03T15:39:55;10.35;;;4.13;;
78818;SDS011;68166;55.090;37.460;2023-04-03T15:44:56;7.32;;;3.92;;
78818;SDS011;68166;55.090;37.460;2023-04-03T15:58:52;9.18;;;4.47;;
78818;SDS011;68166;55.090;37.460;2023-04-03T16:03:56;6.00;;;3.63;;
78818;SDS011;68166;55.090;37.460;2023-04-03T16:08:57;6.57;;;3.25;;
78818;SDS011;68166;55.090;37.460;2023-04-03T16:13:58;4.97;;;3.90;;
78818;SDS011;68166;55.090;37.460;2023-04-03T16:18:59;6.30;;;3.40;;
78818;SDS011;68166;55.090;37.460;2023-04-03T16:27:15;6.60;;;2.83;;
78818;SDS011;68166;55.090;37.460;2023-04-03T16:32:16;5.50;;;2.60;;
78818;SDS011;68166;55.090;37.460;2023-04-03T16:37:17;4.57;;;2.42;;
